createdAt,value
2023-05-15T00:01:24.637Z,13.94
2023-05-15T00:03:52.416Z,13.92
2023-05-15T00:06:20.032Z,13.87
2023-05-15T00:08:47.318Z,13.86
2023-05-15T00:11:14.805Z,13.88
2023-05-15T00:13:42.009Z,13.87
2023-05-15T00:16:09.608Z,13.91
2023-05-15T00:18:37.093Z,13.91
2023-05-15T00:21:04.409Z,13.80
2023-05-15T00:23:31.638Z,13.65
2023-05-15T00:25:59.134Z,13.63
2023-05-15T00:28:26.436Z,13.69
2023-05-15T00:30:55.700Z,13.79
2023-05-15T00:33:23.328Z,13.78
2023-05-15T00:35:50.984Z,13.80
2023-05-15T00:38:18.171Z,13.83
2023-05-15T00:40:46.284Z,13.85
2023-05-15T00:43:13.982Z,13.88
2023-05-15T00:45:42.416Z,13.88
2023-05-15T00:48:10.647Z,13.87
2023-05-15T00:50:41.399Z,13.75
2023-05-15T00:53:09.364Z,13.77
2023-05-15T00:55:38.450Z,13.85
2023-05-15T00:58:06.013Z,13.83
2023-05-15T01:00:33.638Z,13.84
2023-05-15T01:03:01.876Z,13.80
2023-05-15T01:05:29.371Z,13.76
2023-05-15T01:08:17.913Z,13.82
2023-05-15T01:10:45.814Z,13.96
2023-05-15T01:13:14.293Z,13.96
2023-05-15T01:15:42.452Z,13.95
2023-05-15T01:18:11.463Z,13.99
2023-05-15T01:20:53.129Z,13.99
2023-05-15T01:24:02.637Z,13.83
2023-05-15T01:27:03.631Z,13.88
2023-05-15T01:29:36.897Z,13.91
2023-05-15T01:32:12.270Z,13.92
2023-05-15T01:34:55.892Z,13.85
2023-05-15T01:37:25.605Z,13.85
2023-05-15T01:40:00.354Z,13.84
2023-05-15T01:42:31.176Z,13.90
2023-05-15T01:45:03.276Z,13.85
2023-05-15T01:47:39.859Z,13.81
2023-05-15T01:50:10.548Z,13.72
2023-05-15T01:52:40.918Z,13.64
2023-05-15T01:55:08.992Z,13.67
2023-05-15T01:57:36.427Z,13.77
2023-05-15T02:00:04.188Z,13.77
2023-05-15T02:02:42.332Z,13.71
2023-05-15T02:05:11.180Z,13.74
2023-05-15T02:07:42.608Z,13.80
2023-05-15T02:10:11.870Z,13.84
2023-05-15T02:12:40.961Z,13.91
2023-05-15T02:15:11.737Z,13.77
2023-05-15T02:17:39.016Z,13.68
2023-05-15T02:20:07.708Z,13.64
2023-05-15T02:22:37.618Z,13.66
2023-05-15T02:25:05.171Z,13.65
2023-05-15T02:28:04.910Z,13.60
2023-05-15T02:30:46.308Z,13.66
2023-05-15T02:33:36.076Z,13.70
2023-05-15T02:36:07.389Z,13.79
2023-05-15T02:38:53.714Z,13.85
2023-05-15T02:41:22.085Z,13.84
2023-05-15T02:43:50.818Z,13.84
2023-05-15T02:46:19.212Z,13.91
2023-05-15T02:48:48.121Z,13.84
2023-05-15T02:51:15.276Z,13.80
2023-05-15T02:53:42.974Z,13.77
2023-05-15T02:56:10.622Z,13.75
2023-05-15T02:58:38.992Z,13.77
2023-05-15T03:01:06.935Z,13.69
2023-05-15T03:03:34.514Z,13.68
2023-05-15T03:06:01.694Z,13.74
2023-05-15T03:08:29.084Z,13.73
2023-05-15T03:10:56.595Z,13.82
2023-05-15T03:13:23.825Z,13.88
2023-05-15T03:15:52.775Z,13.84
2023-05-15T03:18:20.462Z,13.76
2023-05-15T03:20:48.939Z,13.78
2023-05-15T03:23:16.127Z,13.89
2023-05-15T03:25:43.581Z,13.85
2023-05-15T03:28:11.582Z,13.82
2023-05-15T03:30:38.772Z,13.77
2023-05-15T03:33:06.493Z,13.82
2023-05-15T03:35:33.768Z,13.77
2023-05-15T03:38:01.090Z,13.71
2023-05-15T03:40:28.660Z,13.63
2023-05-15T03:42:55.824Z,13.68
2023-05-15T03:45:23.372Z,13.71
2023-05-15T03:47:51.275Z,13.62
2023-05-15T03:50:18.489Z,13.54
2023-05-15T03:52:45.704Z,13.54
2023-05-15T03:55:13.219Z,13.56
2023-05-15T03:57:41.645Z,13.50
2023-05-15T04:00:11.122Z,13.38
2023-05-15T04:02:40.258Z,13.38
2023-05-15T04:05:08.622Z,13.52
2023-05-15T04:07:36.795Z,13.82
2023-05-15T04:10:04.251Z,13.99
2023-05-15T04:12:34.779Z,14.23
2023-05-15T04:15:13.894Z,14.41
2023-05-15T04:17:42.103Z,14.60
2023-05-15T04:20:11.103Z,14.76
2023-05-15T04:22:38.273Z,14.81
2023-05-15T04:25:06.210Z,14.86
2023-05-15T04:27:33.527Z,14.86
2023-05-15T04:30:01.734Z,14.99
2023-05-15T04:32:30.623Z,15.00
2023-05-15T04:34:57.965Z,15.05
2023-05-15T04:37:25.127Z,15.12
2023-05-15T04:39:52.670Z,15.03
2023-05-15T04:42:20.011Z,14.81
2023-05-15T04:44:47.231Z,14.75
2023-05-15T04:47:14.716Z,14.69
2023-05-15T04:49:42.141Z,14.64
2023-05-15T04:52:09.352Z,14.56
2023-05-15T04:54:36.876Z,14.49
2023-05-15T04:57:04.216Z,14.56
2023-05-15T04:59:31.391Z,14.52
2023-05-15T05:01:59.709Z,14.56
2023-05-15T05:04:26.939Z,14.51
2023-05-15T05:06:54.132Z,14.49
2023-05-15T05:09:21.650Z,14.47
2023-05-15T05:11:48.763Z,14.35
2023-05-15T05:14:16.016Z,14.33
2023-05-15T05:16:46.305Z,14.34
2023-05-15T05:19:13.722Z,14.31
2023-05-15T05:21:40.986Z,14.25
2023-05-15T05:24:08.428Z,14.19
2023-05-15T05:26:35.635Z,14.28
2023-05-15T05:29:02.904Z,14.21
2023-05-15T05:31:30.377Z,14.21
2023-05-15T05:33:57.591Z,14.31
2023-05-15T05:36:24.765Z,14.31
2023-05-15T05:38:52.274Z,14.24
2023-05-15T05:41:19.460Z,14.29
2023-05-15T05:43:46.589Z,14.30
2023-05-15T05:46:14.041Z,14.37
2023-05-15T05:48:41.248Z,14.45
2023-05-15T05:51:08.392Z,14.32
2023-05-15T05:53:37.500Z,14.37
2023-05-15T05:56:05.589Z,14.33
2023-05-15T05:58:32.844Z,14.32
2023-05-15T06:01:00.879Z,14.24
2023-05-15T06:03:28.661Z,14.34
2023-05-15T06:05:55.933Z,14.38
2023-05-15T06:08:23.193Z,14.49
2023-05-15T06:10:50.736Z,14.58
2023-05-15T06:13:17.966Z,14.72
2023-05-15T06:15:46.411Z,14.78
2023-05-15T06:18:14.198Z,14.80
2023-05-15T06:20:42.888Z,14.88
2023-05-15T06:23:10.119Z,14.92
2023-05-15T06:25:37.691Z,15.05
2023-05-15T06:28:05.042Z,15.23
2023-05-15T06:30:32.356Z,15.38
2023-05-15T06:33:00.184Z,15.39
2023-05-15T06:35:27.536Z,15.27
2023-05-15T06:37:56.507Z,15.21
2023-05-15T06:40:25.435Z,14.94
2023-05-15T06:42:52.788Z,14.90
2023-05-15T06:45:20.000Z,14.93
2023-05-15T06:47:47.467Z,15.00
2023-05-15T06:50:14.679Z,15.31
2023-05-15T06:52:41.875Z,15.44
2023-05-15T06:55:09.483Z,15.42
2023-05-15T06:57:36.644Z,15.37
2023-05-15T07:00:05.386Z,15.35
2023-05-15T07:02:32.879Z,15.15
2023-05-15T07:05:00.076Z,15.17
2023-05-15T07:07:27.296Z,15.43
2023-05-15T07:09:57.796Z,15.61
2023-05-15T07:12:24.980Z,15.74
2023-05-15T07:14:52.047Z,15.77
2023-05-15T07:17:19.565Z,15.81
2023-05-15T07:19:46.719Z,15.71
2023-05-15T07:22:13.945Z,15.70
2023-05-15T07:24:41.476Z,15.68
2023-05-15T07:27:08.623Z,15.68
2023-05-15T07:29:35.791Z,15.88
2023-05-15T07:32:03.437Z,16.08
2023-05-15T07:34:30.792Z,16.11
2023-05-15T07:36:58.017Z,15.99
2023-05-15T07:39:25.552Z,15.87
2023-05-15T07:41:52.760Z,15.86
2023-05-15T07:44:19.921Z,15.87
2023-05-15T07:46:47.863Z,15.79
2023-05-15T07:49:15.068Z,15.88
2023-05-15T07:51:42.836Z,15.90
2023-05-15T07:54:10.400Z,15.94
2023-05-15T07:56:37.806Z,15.93
2023-05-15T07:59:05.050Z,15.89
2023-05-15T08:01:33.024Z,15.86
2023-05-15T08:04:00.692Z,15.80
2023-05-15T08:06:27.972Z,15.94
2023-05-15T08:08:55.236Z,16.06
2023-05-15T08:11:22.728Z,16.21
2023-05-15T08:13:49.978Z,16.22
2023-05-15T08:16:17.148Z,16.19
2023-05-15T08:18:44.782Z,16.26
2023-05-15T08:21:11.972Z,16.27
2023-05-15T08:23:39.113Z,16.16
2023-05-15T08:26:06.581Z,16.33
2023-05-15T08:28:33.772Z,16.44
2023-05-15T08:31:00.992Z,16.40
2023-05-15T08:33:28.485Z,16.59
2023-05-15T08:35:55.708Z,16.73
2023-05-15T08:38:23.856Z,16.96
2023-05-15T08:40:53.200Z,16.92
2023-05-15T08:43:21.241Z,16.97
2023-05-15T08:45:49.343Z,17.01
2023-05-15T08:48:19.528Z,17.09
2023-05-15T08:50:47.238Z,17.16
2023-05-15T08:53:14.814Z,17.17
2023-05-15T08:55:42.360Z,17.21
2023-05-15T08:58:10.047Z,17.18
2023-05-15T09:00:37.678Z,17.22
2023-05-15T09:03:05.527Z,17.16
2023-05-15T09:05:32.816Z,17.27
2023-05-15T09:08:04.164Z,17.28
2023-05-15T09:10:31.942Z,17.26
2023-05-15T09:12:59.640Z,17.34
2023-05-15T09:15:28.088Z,17.24
2023-05-15T09:17:56.336Z,17.29
2023-05-15T09:20:30.845Z,17.31
2023-05-15T09:22:59.548Z,17.28
2023-05-15T09:25:40.459Z,17.36
2023-05-15T09:28:10.602Z,17.31
2023-05-15T09:30:38.800Z,17.30
2023-05-15T09:33:06.123Z,17.30
2023-05-15T09:35:40.973Z,17.19
2023-05-15T09:38:10.539Z,17.13
2023-05-15T09:40:39.059Z,17.18
2023-05-15T09:43:06.262Z,17.22
2023-05-15T09:45:33.535Z,17.27
2023-05-15T09:48:04.948Z,17.24
2023-05-15T09:50:34.550Z,17.19
2023-05-15T09:53:02.200Z,17.33
2023-05-15T09:55:34.811Z,17.40
2023-05-15T09:58:15.208Z,17.45
2023-05-15T10:00:48.568Z,17.50
2023-05-15T10:03:19.796Z,17.41
2023-05-15T10:05:47.181Z,17.37
2023-05-15T10:08:15.864Z,17.50
2023-05-15T10:10:43.880Z,17.53
2023-05-15T10:13:11.845Z,17.76
2023-05-15T10:15:39.837Z,17.75
2023-05-15T10:18:07.991Z,17.83
2023-05-15T10:20:37.991Z,17.58
2023-05-15T10:23:06.553Z,17.74
2023-05-15T10:25:34.157Z,17.73
2023-05-15T10:28:01.798Z,17.83
2023-05-15T10:30:29.384Z,17.85
2023-05-15T10:32:57.586Z,17.91
2023-05-15T10:35:28.072Z,17.96
2023-05-15T10:37:55.285Z,17.92
2023-05-15T10:40:23.905Z,17.98
2023-05-15T10:42:51.339Z,17.93
2023-05-15T10:45:18.529Z,17.90
2023-05-15T10:47:46.210Z,17.91
2023-05-15T10:50:14.382Z,18.28
2023-05-15T10:52:41.951Z,18.12
2023-05-15T10:55:17.063Z,18.21
2023-05-15T10:57:47.609Z,18.02
2023-05-15T11:00:25.197Z,17.97
2023-05-15T11:02:55.394Z,17.91
2023-05-15T11:05:23.877Z,17.88
2023-05-15T11:08:16.003Z,18.03
2023-05-15T11:10:43.483Z,18.10
2023-05-15T11:13:12.022Z,18.17
2023-05-15T11:15:46.750Z,18.33
2023-05-15T11:18:14.683Z,18.40
2023-05-15T11:20:54.823Z,18.19
2023-05-15T11:23:22.929Z,18.26
2023-05-15T11:25:57.453Z,18.38
2023-05-15T11:28:25.974Z,18.46
2023-05-15T11:30:55.786Z,18.53
2023-05-15T11:33:22.891Z,18.46
2023-05-15T11:35:58.524Z,18.35
2023-05-15T11:38:26.219Z,18.31
2023-05-15T11:41:03.465Z,18.30
2023-05-15T11:43:31.624Z,18.54
2023-05-15T11:46:05.747Z,18.66
2023-05-15T11:48:33.600Z,18.53
2023-05-15T11:51:02.098Z,18.44
2023-05-15T11:53:33.579Z,18.33
2023-05-15T11:56:01.200Z,18.41
2023-05-15T11:58:28.315Z,18.53
2023-05-15T12:00:55.477Z,18.60
2023-05-15T12:03:27.524Z,18.66
2023-05-15T12:05:59.070Z,18.44
2023-05-15T12:08:35.278Z,18.47
2023-05-15T12:11:03.014Z,18.36
2023-05-15T12:13:31.997Z,18.29
2023-05-15T12:16:00.323Z,18.23
2023-05-15T12:18:27.635Z,18.19
2023-05-15T12:20:55.470Z,18.16
2023-05-15T12:23:24.093Z,18.13
2023-05-15T12:25:55.069Z,18.10
2023-05-15T12:28:22.848Z,17.98
2023-05-15T12:30:50.035Z,17.96
2023-05-15T12:33:17.496Z,17.99
2023-05-15T12:35:57.427Z,18.03
2023-05-15T12:38:27.288Z,18.27
2023-05-15T12:40:54.877Z,18.51
2023-05-15T12:43:24.926Z,18.56
2023-05-15T12:45:56.028Z,18.48
2023-05-15T12:48:28.112Z,18.38
2023-05-15T12:50:55.229Z,18.47
2023-05-15T12:53:22.326Z,18.50
2023-05-15T12:55:51.083Z,18.40
2023-05-15T12:58:19.167Z,18.41
2023-05-15T13:00:47.878Z,18.50
2023-05-15T13:03:15.377Z,18.53
2023-05-15T13:05:44.337Z,18.69
2023-05-15T13:08:16.805Z,18.71
2023-05-15T13:10:45.135Z,18.80
2023-05-15T13:13:12.583Z,18.88
2023-05-15T13:15:42.686Z,18.99
2023-05-15T13:18:10.766Z,19.17
2023-05-15T13:20:46.469Z,19.32
2023-05-15T13:23:17.956Z,19.31
2023-05-15T13:25:45.604Z,19.18
2023-05-15T13:28:13.001Z,19.23
2023-05-15T13:30:41.797Z,19.35
2023-05-15T13:33:09.857Z,19.38
2023-05-15T13:35:37.821Z,19.51
2023-05-15T13:38:05.438Z,19.47
2023-05-15T13:40:33.461Z,19.30
2023-05-15T13:43:00.707Z,19.36
2023-05-15T13:45:28.590Z,19.60
2023-05-15T13:47:56.089Z,19.69
2023-05-15T13:50:23.673Z,19.64
2023-05-15T13:52:51.267Z,19.71
2023-05-15T13:55:20.287Z,19.69
2023-05-15T13:57:48.756Z,19.80
2023-05-15T14:00:17.366Z,19.81
2023-05-15T14:02:45.309Z,19.88
2023-05-15T14:05:14.254Z,19.86
2023-05-15T14:07:41.934Z,19.82
2023-05-15T14:10:09.989Z,19.65
2023-05-15T14:12:37.768Z,19.57
2023-05-15T14:15:05.263Z,19.58
2023-05-15T14:17:32.921Z,19.43
2023-05-15T14:20:00.125Z,19.29
2023-05-15T14:22:27.331Z,19.25
2023-05-15T14:24:54.816Z,19.23
2023-05-15T14:27:22.004Z,19.28
2023-05-15T14:29:49.585Z,19.28
2023-05-15T14:32:17.438Z,19.27
2023-05-15T14:34:44.639Z,19.20
2023-05-15T14:37:11.975Z,19.13
2023-05-15T14:39:39.470Z,19.10
2023-05-15T14:42:07.096Z,19.11
2023-05-15T14:44:34.879Z,19.04
2023-05-15T14:47:12.864Z,18.98
2023-05-15T14:49:40.618Z,18.98
2023-05-15T14:52:09.502Z,18.95
2023-05-15T14:54:37.826Z,18.94
2023-05-15T14:57:05.334Z,18.99
2023-05-15T14:59:32.727Z,19.06
2023-05-15T15:01:59.953Z,19.06
2023-05-15T15:04:29.064Z,18.83
2023-05-15T15:06:57.183Z,18.79
2023-05-15T15:09:25.549Z,18.78
2023-05-15T15:11:53.707Z,18.86
2023-05-15T15:14:21.389Z,18.91
2023-05-15T15:16:48.677Z,18.91
2023-05-15T15:19:18.986Z,18.99
2023-05-15T15:21:47.523Z,18.97
2023-05-15T15:24:15.005Z,18.87
2023-05-15T15:26:42.361Z,18.82
2023-05-15T15:29:09.904Z,18.92
2023-05-15T15:31:37.139Z,18.94
2023-05-15T15:34:05.825Z,18.99
2023-05-15T15:36:33.382Z,18.95
2023-05-15T15:39:00.469Z,18.90
2023-05-15T15:41:31.332Z,18.91
2023-05-15T15:43:58.845Z,18.92
2023-05-15T15:46:26.177Z,18.95
2023-05-15T15:48:53.265Z,18.96
2023-05-15T15:51:21.004Z,18.87
2023-05-15T15:53:48.096Z,18.74
2023-05-15T15:56:15.252Z,18.61
2023-05-15T15:58:42.713Z,18.58
2023-05-15T16:01:10.128Z,18.63
2023-05-15T16:03:37.533Z,18.67
2023-05-15T16:06:04.919Z,18.53
2023-05-15T16:08:32.199Z,18.49
2023-05-15T16:10:59.604Z,18.44
2023-05-15T16:13:26.818Z,18.44
2023-05-15T16:15:53.898Z,18.37
2023-05-15T16:18:21.448Z,18.29
2023-05-15T16:20:48.639Z,18.33
2023-05-15T16:23:16.282Z,18.33
2023-05-15T16:25:44.560Z,18.27
2023-05-15T16:28:11.957Z,18.25
2023-05-15T16:30:48.112Z,18.24
2023-05-15T16:33:18.156Z,18.19
2023-05-15T16:35:45.773Z,18.09
2023-05-15T16:38:13.368Z,18.13
2023-05-15T16:40:41.040Z,18.12
2023-05-15T16:43:08.126Z,17.95
2023-05-15T16:45:35.261Z,17.99
2023-05-15T16:48:02.972Z,18.03
2023-05-15T16:50:35.874Z,18.01
2023-05-15T16:53:04.380Z,17.96
2023-05-15T16:55:31.981Z,17.91
2023-05-15T16:57:59.115Z,17.79
2023-05-15T17:00:26.907Z,17.78
2023-05-15T17:02:54.768Z,17.71
2023-05-15T17:05:21.967Z,17.75
2023-05-15T17:07:49.487Z,17.76
2023-05-15T17:10:16.724Z,17.78
2023-05-15T17:12:44.140Z,17.77
2023-05-15T17:15:11.792Z,17.62
2023-05-15T17:17:38.916Z,17.49
2023-05-15T17:20:07.036Z,17.53
2023-05-15T17:22:34.546Z,17.51
2023-05-15T17:25:01.704Z,17.51
2023-05-15T17:27:28.900Z,17.51
2023-05-15T17:29:56.569Z,17.52
2023-05-15T17:32:23.874Z,17.47
2023-05-15T17:34:51.477Z,17.46
2023-05-15T17:37:18.865Z,17.45
2023-05-15T17:39:46.028Z,17.34
2023-05-15T17:42:13.161Z,17.27
2023-05-15T17:44:40.621Z,17.17
2023-05-15T17:47:09.740Z,17.08
2023-05-15T17:49:37.734Z,17.12
2023-05-15T17:52:05.897Z,17.08
2023-05-15T17:54:33.007Z,17.07
2023-05-15T17:57:00.304Z,17.03
2023-05-15T17:59:27.852Z,16.95
2023-05-15T18:01:55.126Z,16.83
2023-05-15T18:04:25.311Z,16.73
2023-05-15T18:06:52.506Z,16.59
2023-05-15T18:09:23.152Z,16.44
2023-05-15T18:11:51.723Z,16.31
2023-05-15T18:14:18.918Z,16.31
2023-05-15T18:16:46.000Z,16.16
2023-05-15T18:19:13.521Z,16.04
2023-05-15T18:21:40.682Z,15.95
2023-05-15T18:24:07.796Z,15.96
2023-05-15T18:26:35.240Z,15.98
2023-05-15T18:29:02.417Z,15.83
2023-05-15T18:31:29.656Z,15.74
2023-05-15T18:33:57.145Z,15.58
2023-05-15T18:36:24.277Z,15.51
2023-05-15T18:38:51.319Z,15.42
2023-05-15T18:41:18.717Z,15.41
2023-05-15T18:43:46.380Z,15.35
2023-05-15T18:46:13.674Z,15.24
2023-05-15T18:48:41.274Z,15.14
2023-05-15T18:51:09.617Z,15.05
2023-05-15T18:53:36.705Z,15.01
2023-05-15T18:56:04.452Z,14.96
2023-05-15T18:58:31.535Z,14.96
2023-05-15T19:00:58.754Z,14.87
2023-05-15T19:03:26.356Z,14.87
2023-05-15T19:05:53.472Z,14.80
2023-05-15T19:08:20.679Z,14.74
2023-05-15T19:10:48.724Z,14.67
2023-05-15T19:13:15.808Z,14.69
2023-05-15T19:15:51.387Z,14.64
2023-05-15T19:18:19.040Z,14.65
2023-05-15T19:20:56.626Z,14.65
2023-05-15T19:23:24.568Z,14.61
2023-05-15T19:25:51.722Z,14.60
2023-05-15T19:28:18.819Z,14.63
2023-05-15T19:30:46.382Z,14.73
2023-05-15T19:33:15.648Z,14.67
2023-05-15T19:35:42.759Z,14.56
2023-05-15T19:38:10.159Z,14.59
2023-05-15T19:40:37.285Z,14.61
2023-05-15T19:43:04.478Z,14.58
2023-05-15T19:45:31.834Z,14.56
2023-05-15T19:48:00.314Z,14.49
2023-05-15T19:50:27.730Z,14.52
2023-05-15T19:52:55.908Z,14.53
2023-05-15T19:55:23.124Z,14.60
2023-05-15T19:57:51.545Z,14.65
2023-05-15T20:00:19.242Z,14.73
2023-05-15T20:02:47.496Z,14.73
2023-05-15T20:05:15.354Z,14.63
2023-05-15T20:07:43.151Z,14.56
2023-05-15T20:10:10.781Z,14.51
2023-05-15T20:12:37.933Z,14.56
2023-05-15T20:15:06.877Z,14.52
2023-05-15T20:17:34.416Z,14.45
2023-05-15T20:20:02.270Z,14.38
2023-05-15T20:22:29.435Z,14.39
2023-05-15T20:24:56.897Z,14.37
2023-05-15T20:27:23.983Z,14.35
2023-05-15T20:29:51.091Z,14.34
2023-05-15T20:32:18.669Z,14.34
2023-05-15T20:34:47.555Z,14.39
2023-05-15T20:37:14.635Z,14.44
2023-05-15T20:39:42.534Z,14.41
2023-05-15T20:42:09.593Z,14.40
2023-05-15T20:44:39.146Z,14.33
2023-05-15T20:47:06.736Z,14.35
2023-05-15T20:49:33.991Z,14.34
2023-05-15T20:52:01.520Z,14.37
2023-05-15T20:54:29.315Z,14.40
2023-05-15T20:56:56.477Z,14.36
2023-05-15T20:59:23.545Z,14.32
2023-05-15T21:01:51.187Z,14.42
2023-05-15T21:04:18.498Z,14.48
2023-05-15T21:06:45.788Z,14.39
2023-05-15T21:09:14.236Z,14.29
2023-05-15T21:11:41.370Z,14.27
2023-05-15T21:14:08.640Z,14.22
2023-05-15T21:16:36.398Z,14.26
2023-05-15T21:19:03.755Z,14.24
2023-05-15T21:21:31.721Z,14.24
2023-05-15T21:24:01.219Z,14.19
2023-05-15T21:26:28.429Z,14.11
2023-05-15T21:28:57.279Z,14.11
2023-05-15T21:31:25.619Z,14.10
2023-05-15T21:33:53.250Z,14.10
2023-05-15T21:36:20.869Z,14.06
2023-05-15T21:38:48.378Z,13.98
2023-05-15T21:41:15.596Z,13.90
2023-05-15T21:43:42.739Z,13.88
2023-05-15T21:46:10.229Z,13.89
2023-05-15T21:48:37.388Z,13.93
2023-05-15T21:51:04.582Z,13.93
2023-05-15T21:53:32.209Z,13.95
2023-05-15T21:56:00.326Z,13.92
2023-05-15T21:58:27.783Z,13.91
2023-05-15T22:00:55.406Z,13.97
2023-05-15T22:03:23.073Z,13.96
2023-05-15T22:05:52.729Z,13.99
2023-05-15T22:08:21.047Z,14.01
2023-05-15T22:10:48.996Z,14.10
2023-05-15T22:13:16.173Z,14.12
2023-05-15T22:15:43.314Z,14.18
2023-05-15T22:18:11.218Z,14.21
2023-05-15T22:20:39.095Z,14.21
2023-05-15T22:23:06.511Z,14.17
2023-05-15T22:25:33.885Z,14.16
2023-05-15T22:28:00.973Z,14.14
2023-05-15T22:30:28.474Z,14.18
2023-05-15T22:32:56.003Z,14.25
2023-05-15T22:35:23.138Z,14.23
2023-05-15T22:37:50.318Z,14.23
2023-05-15T22:40:17.841Z,14.23
2023-05-15T22:42:44.956Z,14.27
2023-05-15T22:45:12.106Z,14.30
2023-05-15T22:47:40.012Z,14.24
2023-05-15T22:50:08.845Z,14.14
2023-05-15T22:52:35.977Z,14.13
2023-05-15T22:55:15.540Z,14.13
2023-05-15T22:57:43.730Z,14.11
2023-05-15T23:00:12.043Z,14.11
2023-05-15T23:02:41.149Z,14.12
2023-05-15T23:05:09.827Z,14.09
2023-05-15T23:08:09.036Z,14.08
2023-05-15T23:10:56.118Z,14.06
2023-05-15T23:13:23.732Z,14.05
2023-05-15T23:15:51.153Z,14.03
2023-05-15T23:18:18.425Z,13.98
2023-05-15T23:20:45.938Z,13.99
2023-05-15T23:23:13.135Z,13.97
2023-05-15T23:25:40.278Z,13.96
2023-05-15T23:28:07.729Z,13.93
2023-05-15T23:30:34.896Z,13.90
2023-05-15T23:33:02.098Z,13.86
2023-05-15T23:35:29.508Z,13.83
2023-05-15T23:37:56.589Z,13.88
2023-05-15T23:40:23.900Z,13.83
2023-05-15T23:42:51.373Z,13.90
2023-05-15T23:45:18.580Z,13.92
2023-05-15T23:47:46.613Z,13.92
2023-05-15T23:50:14.107Z,13.92
2023-05-15T23:52:41.380Z,13.92
2023-05-15T23:55:08.718Z,13.96
2023-05-15T23:57:36.176Z,13.92
